createdAt,value
2023-09-14T00:00:51.977Z,0.30
2023-09-14T00:03:19.983Z,0.30
2023-09-14T00:05:49.878Z,0.30
2023-09-14T00:08:17.510Z,0.30
2023-09-14T00:10:44.938Z,0.30
2023-09-14T00:13:12.123Z,0.30
2023-09-14T00:15:40.256Z,0.30
2023-09-14T00:18:07.858Z,0.30
2023-09-14T00:20:35.300Z,0.30
2023-09-14T00:23:05.029Z,0.23
2023-09-14T00:25:32.032Z,0.30
2023-09-14T00:27:59.388Z,0.30
2023-09-14T00:30:26.341Z,0.30
2023-09-14T00:32:54.289Z,0.30
2023-09-14T00:35:21.734Z,0.30
2023-09-14T00:37:49.952Z,0.30
2023-09-14T00:40:19.024Z,0.30
2023-09-14T00:42:48.012Z,0.30
2023-09-14T00:45:17.148Z,0.30
2023-09-14T00:47:46.630Z,0.30
2023-09-14T00:50:18.420Z,0.30
2023-09-14T00:52:48.215Z,0.30
2023-09-14T00:55:21.678Z,0.30
2023-09-14T00:57:50.043Z,0.30
2023-09-14T01:00:17.909Z,0.30
2023-09-14T01:02:46.097Z,0.30
2023-09-14T01:05:17.416Z,0.30
2023-09-14T01:07:44.599Z,0.30
2023-09-14T01:10:11.941Z,0.30
2023-09-14T01:12:40.937Z,0.30
2023-09-14T01:15:10.895Z,0.30
2023-09-14T01:17:44.734Z,0.30
2023-09-14T01:20:37.384Z,0.30
2023-09-14T01:23:20.204Z,0.30
2023-09-14T01:25:50.314Z,0.30
2023-09-14T01:28:20.026Z,0.30
2023-09-14T01:30:46.900Z,0.30
2023-09-14T01:33:16.615Z,0.30
2023-09-14T01:35:48.596Z,0.30
2023-09-14T01:38:16.091Z,0.30
2023-09-14T01:40:45.534Z,0.30
2023-09-14T01:43:15.415Z,0.30
2023-09-14T01:45:43.435Z,0.30
2023-09-14T01:48:15.688Z,0.30
2023-09-14T01:50:42.601Z,0.30
2023-09-14T01:53:10.699Z,0.30
2023-09-14T01:55:37.674Z,0.30
2023-09-14T01:58:05.150Z,0.30
2023-09-14T02:00:33.587Z,0.30
2023-09-14T02:03:00.862Z,0.30
2023-09-14T02:05:27.820Z,0.30
2023-09-14T02:07:55.021Z,0.30
2023-09-14T02:10:23.420Z,0.30
2023-09-14T02:12:51.057Z,0.30
2023-09-14T02:15:18.291Z,0.30
2023-09-14T02:17:47.007Z,0.30
2023-09-14T02:20:14.035Z,0.30
2023-09-14T02:22:41.342Z,0.30
2023-09-14T02:25:08.746Z,0.30
2023-09-14T02:27:36.175Z,0.30
2023-09-14T02:30:05.000Z,0.30
2023-09-14T02:32:32.031Z,0.30
2023-09-14T02:35:00.646Z,0.30
2023-09-14T02:37:27.566Z,0.30
2023-09-14T02:39:54.832Z,0.30
2023-09-14T02:42:21.732Z,0.30
2023-09-14T02:44:48.921Z,0.40
2023-09-14T02:47:15.799Z,0.30
2023-09-14T02:49:43.369Z,0.30
2023-09-14T02:52:11.624Z,0.40
2023-09-14T02:54:38.522Z,0.30
2023-09-14T02:57:05.717Z,0.30
2023-09-14T02:59:32.978Z,0.30
2023-09-14T03:01:59.961Z,0.30
2023-09-14T03:04:27.217Z,0.30
2023-09-14T03:06:55.511Z,0.30
2023-09-14T03:09:24.065Z,0.30
2023-09-14T03:11:51.099Z,0.30
2023-09-14T03:14:18.317Z,0.30
2023-09-14T03:16:45.275Z,0.30
2023-09-14T03:19:12.633Z,0.30
2023-09-14T03:21:39.618Z,0.30
2023-09-14T03:24:07.771Z,0.30
2023-09-14T03:26:36.003Z,0.30
2023-09-14T03:29:03.221Z,0.30
2023-09-14T03:31:30.435Z,0.30
2023-09-14T03:33:57.437Z,0.30
2023-09-14T03:36:24.919Z,0.40
2023-09-14T03:38:51.982Z,0.30
2023-09-14T03:41:19.238Z,0.30
2023-09-14T03:43:47.528Z,0.30
2023-09-14T03:46:16.206Z,0.30
2023-09-14T03:48:43.198Z,0.30
2023-09-14T03:51:10.647Z,0.30
2023-09-14T03:53:37.594Z,0.30
2023-09-14T03:56:05.146Z,0.30
2023-09-14T03:58:32.588Z,0.30
2023-09-14T04:01:01.184Z,0.30
2023-09-14T04:03:28.355Z,0.30
2023-09-14T04:05:55.507Z,0.40
2023-09-14T04:08:24.221Z,0.30
2023-09-14T04:10:52.585Z,0.30
2023-09-14T04:13:28.234Z,0.30
2023-09-14T04:15:56.154Z,0.30
2023-09-14T04:18:24.959Z,0.30
2023-09-14T04:20:52.921Z,0.33
2023-09-14T04:23:20.151Z,0.30
2023-09-14T04:25:48.901Z,0.30
2023-09-14T04:28:16.665Z,0.30
2023-09-14T04:30:45.326Z,0.30
2023-09-14T04:33:12.767Z,0.30
2023-09-14T04:35:41.933Z,0.30
2023-09-14T04:38:09.505Z,0.30
2023-09-14T04:40:38.572Z,0.30
2023-09-14T04:43:05.665Z,0.30
2023-09-14T04:45:33.059Z,0.30
2023-09-14T04:48:00.843Z,0.30
2023-09-14T04:50:28.828Z,0.40
2023-09-14T04:52:57.449Z,0.30
2023-09-14T04:55:24.807Z,0.30
2023-09-14T04:57:51.953Z,0.30
2023-09-14T05:00:19.632Z,0.30
2023-09-14T05:02:46.784Z,0.30
2023-09-14T05:05:14.157Z,0.30
2023-09-14T05:07:44.021Z,0.30
2023-09-14T05:10:12.610Z,0.30
2023-09-14T05:12:39.602Z,0.30
2023-09-14T05:15:07.706Z,0.30
2023-09-14T05:17:35.971Z,0.33
2023-09-14T05:20:05.103Z,0.30
2023-09-14T05:22:32.298Z,0.30
2023-09-14T05:24:59.194Z,0.30
2023-09-14T05:27:27.933Z,0.30
2023-09-14T05:29:54.750Z,0.37
2023-09-14T05:32:21.912Z,0.30
2023-09-14T05:34:48.756Z,0.33
2023-09-14T05:37:15.958Z,0.30
2023-09-14T05:39:43.054Z,0.30
2023-09-14T05:42:10.253Z,0.30
2023-09-14T05:44:38.452Z,0.30
2023-09-14T05:47:05.580Z,0.30
2023-09-14T05:49:32.600Z,0.30
2023-09-14T05:52:00.104Z,0.30
2023-09-14T05:54:27.096Z,0.30
2023-09-14T05:56:54.866Z,0.30
2023-09-14T05:59:32.305Z,0.30
2023-09-14T06:02:01.925Z,0.30
2023-09-14T06:04:28.905Z,0.30
2023-09-14T06:06:56.482Z,0.30
2023-09-14T06:09:23.445Z,0.30
2023-09-14T06:11:50.677Z,0.30
2023-09-14T06:14:17.659Z,0.30
2023-09-14T06:16:44.938Z,0.30
2023-09-14T06:19:13.272Z,0.30
2023-09-14T06:21:41.689Z,0.30
2023-09-14T06:24:08.698Z,0.30
2023-09-14T06:26:35.916Z,0.30
2023-09-14T06:29:02.808Z,0.30
2023-09-14T06:31:30.177Z,0.30
2023-09-14T06:33:57.297Z,0.30
2023-09-14T06:36:25.852Z,0.40
2023-09-14T06:38:52.706Z,0.30
2023-09-14T06:41:19.950Z,0.30
2023-09-14T06:43:47.303Z,0.30
2023-09-14T06:46:15.062Z,0.30
2023-09-14T06:48:42.268Z,0.30
2023-09-14T06:51:09.667Z,0.30
2023-09-14T06:53:37.948Z,0.30
2023-09-14T06:56:06.968Z,0.30
2023-09-14T06:58:34.057Z,0.33
2023-09-14T07:01:05.692Z,0.30
2023-09-14T07:03:35.070Z,0.30
2023-09-14T07:06:03.032Z,0.30
2023-09-14T07:08:30.274Z,0.30
2023-09-14T07:10:58.488Z,0.30
2023-09-14T07:13:26.122Z,0.30
2023-09-14T07:15:53.481Z,0.40
2023-09-14T07:18:27.740Z,0.30
2023-09-14T07:20:55.852Z,0.30
2023-09-14T07:23:23.323Z,0.30
2023-09-14T07:25:50.435Z,0.30
2023-09-14T07:28:20.244Z,0.30
2023-09-14T07:30:48.359Z,0.30
2023-09-14T07:33:16.133Z,0.30
2023-09-14T07:35:43.384Z,0.30
2023-09-14T07:38:11.866Z,0.30
2023-09-14T07:40:39.314Z,0.30
2023-09-14T07:43:06.672Z,0.30
2023-09-14T07:45:35.121Z,0.30
2023-09-14T07:48:04.453Z,0.30
2023-09-14T07:50:35.154Z,0.30
2023-09-14T07:53:05.023Z,0.30
2023-09-14T07:55:32.184Z,0.30
2023-09-14T07:57:59.194Z,0.30
2023-09-14T08:00:26.692Z,0.30
2023-09-14T08:02:55.419Z,0.30
2023-09-14T08:05:22.768Z,0.30
2023-09-14T08:07:49.918Z,0.30
2023-09-14T08:10:17.148Z,0.30
2023-09-14T08:12:44.287Z,0.30
2023-09-14T08:15:12.894Z,0.30
2023-09-14T08:17:39.837Z,0.30
2023-09-14T08:20:09.839Z,0.30
2023-09-14T08:22:36.778Z,0.30
2023-09-14T08:25:05.026Z,0.30
2023-09-14T08:27:31.864Z,0.30
2023-09-14T08:29:59.126Z,0.27
2023-09-14T08:32:26.100Z,0.30
2023-09-14T08:34:58.885Z,0.30
2023-09-14T08:37:27.244Z,0.30
2023-09-14T08:39:54.903Z,0.30
2023-09-14T08:42:25.843Z,0.23
2023-09-14T08:44:54.116Z,0.27
2023-09-14T08:47:23.366Z,0.30
2023-09-14T08:49:52.479Z,0.30
2023-09-14T08:52:19.985Z,0.30
2023-09-14T08:54:49.823Z,0.20
2023-09-14T08:57:16.840Z,0.20
2023-09-14T08:59:43.842Z,0.30
2023-09-14T09:02:16.405Z,0.20
2023-09-14T09:04:43.619Z,0.27
2023-09-14T09:07:11.393Z,0.20
2023-09-14T09:09:38.384Z,0.20
2023-09-14T09:12:08.366Z,0.20
2023-09-14T09:14:38.488Z,0.20
2023-09-14T09:17:05.965Z,0.30
2023-09-14T09:19:47.503Z,0.30
2023-09-14T09:22:16.276Z,0.30
2023-09-14T09:24:43.361Z,0.20
2023-09-14T09:30:02.980Z,0.23
2023-09-14T09:32:30.296Z,0.30
2023-09-14T09:34:58.313Z,0.30
2023-09-14T09:37:26.530Z,0.30
2023-09-14T09:39:53.735Z,0.30
2023-09-14T09:42:21.683Z,0.30
2023-09-14T09:44:48.680Z,0.20
2023-09-14T09:47:18.476Z,0.30
2023-09-14T09:49:45.808Z,0.20
2023-09-14T09:52:13.674Z,0.30
2023-09-14T09:54:41.129Z,0.30
2023-09-14T09:57:09.394Z,0.20
2023-09-14T09:59:36.262Z,0.27
2023-09-14T10:02:04.349Z,0.20
2023-09-14T10:04:32.567Z,0.30
2023-09-14T10:07:00.846Z,0.20
2023-09-14T10:09:34.684Z,0.30
2023-09-14T10:12:04.779Z,0.20
2023-09-14T10:14:35.504Z,0.30
2023-09-14T10:17:06.802Z,0.20
2023-09-14T10:19:38.183Z,0.20
2023-09-14T10:22:05.797Z,0.20
2023-09-14T10:24:33.209Z,0.20
2023-09-14T10:27:01.229Z,0.20
2023-09-14T10:29:28.976Z,0.20
2023-09-14T10:31:58.616Z,0.20
2023-09-14T10:34:29.344Z,0.20
2023-09-14T10:37:00.651Z,0.20
2023-09-14T10:39:28.329Z,0.20
2023-09-14T10:41:55.689Z,0.20
2023-09-14T10:44:23.558Z,0.30
2023-09-14T10:46:55.584Z,0.20
2023-09-14T10:49:26.018Z,0.20
2023-09-14T10:51:53.197Z,0.30
2023-09-14T10:54:25.625Z,0.20
2023-09-14T10:56:56.477Z,0.20
2023-09-14T10:59:46.750Z,0.20
2023-09-14T11:02:47.288Z,0.20
2023-09-14T11:05:18.981Z,0.20
2023-09-14T11:07:54.514Z,0.20
2023-09-14T11:10:24.259Z,0.22
2023-09-14T11:12:51.791Z,0.20
2023-09-14T11:15:25.154Z,0.20
2023-09-14T11:17:55.193Z,0.20
2023-09-14T11:20:43.283Z,0.20
2023-09-14T11:23:10.738Z,0.17
2023-09-14T11:25:54.178Z,0.20
2023-09-14T11:28:31.310Z,0.20
2023-09-14T11:31:00.121Z,0.20
2023-09-14T11:33:27.627Z,0.20
2023-09-14T11:35:56.357Z,0.20
2023-09-14T11:38:28.561Z,0.20
2023-09-14T11:41:14.123Z,0.20
2023-09-14T11:44:20.142Z,0.20
2023-09-14T11:46:52.640Z,0.20
2023-09-14T11:51:54.912Z,0.20
2023-09-14T11:54:22.453Z,0.20
2023-09-14T11:56:51.125Z,0.22
2023-09-14T11:59:29.790Z,0.20
2023-09-14T12:01:57.160Z,0.20
2023-09-14T12:04:27.789Z,0.20
2023-09-14T12:06:55.972Z,0.20
2023-09-14T12:09:40.441Z,0.20
2023-09-14T12:12:11.827Z,0.10
2023-09-14T12:14:40.237Z,0.20
2023-09-14T12:17:21.354Z,0.20
2023-09-14T12:19:53.095Z,0.20
2023-09-14T12:22:21.633Z,0.20
2023-09-14T12:24:50.251Z,0.20
2023-09-14T12:27:19.174Z,0.20
2023-09-14T12:29:47.253Z,0.20
2023-09-14T12:32:16.399Z,0.20
2023-09-14T12:34:44.052Z,0.10
2023-09-14T12:37:11.416Z,0.20
2023-09-14T12:39:40.138Z,0.20
2023-09-14T12:42:08.104Z,0.10
2023-09-14T12:44:38.387Z,0.20
2023-09-14T12:47:07.558Z,0.10
2023-09-14T12:49:35.873Z,0.10
2023-09-14T12:52:07.538Z,0.10
2023-09-14T12:54:36.189Z,0.10
2023-09-14T12:57:11.423Z,0.10
2023-09-14T12:59:40.306Z,0.10
2023-09-14T13:02:07.425Z,0.10
2023-09-14T13:04:37.573Z,0.20
2023-09-14T13:07:05.422Z,0.20
2023-09-14T13:09:33.459Z,0.10
2023-09-14T13:12:02.777Z,0.20
2023-09-14T13:14:30.077Z,0.15
2023-09-14T13:16:59.780Z,0.20
2023-09-14T13:19:28.461Z,0.13
2023-09-14T13:22:04.812Z,0.17
2023-09-14T13:24:31.979Z,0.20
2023-09-14T13:26:59.261Z,0.10
2023-09-14T13:29:26.124Z,0.20
2023-09-14T13:31:53.347Z,0.20
2023-09-14T13:34:21.767Z,0.10
2023-09-14T13:36:54.285Z,0.20
2023-09-14T13:39:21.636Z,0.17
2023-09-14T13:41:51.941Z,0.20
2023-09-14T13:44:20.135Z,0.17
2023-09-14T13:46:47.474Z,0.20
2023-09-14T13:49:14.683Z,0.20
2023-09-14T13:51:43.962Z,0.10
2023-09-14T13:54:10.868Z,0.20
2023-09-14T13:56:37.786Z,0.20
2023-09-14T13:59:05.009Z,0.20
2023-09-14T14:01:32.025Z,0.10
2023-09-14T14:03:59.504Z,0.10
2023-09-14T14:06:26.501Z,0.10
2023-09-14T14:08:55.065Z,0.10
2023-09-14T14:11:21.917Z,0.10
2023-09-14T14:13:48.837Z,0.20
2023-09-14T14:16:15.913Z,0.10
2023-09-14T14:18:43.325Z,0.10
2023-09-14T14:21:10.362Z,0.10
2023-09-14T14:23:37.678Z,0.10
2023-09-14T14:26:05.946Z,0.10
2023-09-14T14:28:32.837Z,0.10
2023-09-14T14:30:59.910Z,0.10
2023-09-14T14:33:28.186Z,0.10
2023-09-14T14:35:56.025Z,0.10
2023-09-14T14:38:23.172Z,0.10
2023-09-14T14:41:25.268Z,0.10
2023-09-14T14:43:38.345Z,0.10
2023-09-14T14:46:05.886Z,0.10
2023-09-14T14:48:32.905Z,0.10
2023-09-14T14:51:05.186Z,0.10
2023-09-14T14:53:32.325Z,0.10
2023-09-14T14:55:59.219Z,0.10
2023-09-14T14:58:26.362Z,0.10
2023-09-14T15:00:56.860Z,0.10
2023-09-14T15:03:25.398Z,0.10
2023-09-14T15:05:52.571Z,0.10
2023-09-14T15:08:19.860Z,0.10
2023-09-14T15:10:46.787Z,0.10
2023-09-14T15:13:14.083Z,0.10
2023-09-14T15:15:41.032Z,0.10
2023-09-14T15:18:10.059Z,0.20
2023-09-14T15:20:37.026Z,0.13
2023-09-14T15:23:04.137Z,0.10
2023-09-14T15:25:31.795Z,0.10
2023-09-14T15:28:00.471Z,0.10
2023-09-14T15:30:27.853Z,0.15
2023-09-14T15:32:55.092Z,0.10
2023-09-14T15:35:24.086Z,0.10
2023-09-14T15:37:50.980Z,0.10
2023-09-14T15:40:18.131Z,0.10
2023-09-14T15:42:45.444Z,0.10
2023-09-14T15:45:12.787Z,0.10
2023-09-14T15:47:39.798Z,0.10
2023-09-14T15:50:09.408Z,0.10
2023-09-14T15:52:40.018Z,0.10
2023-09-14T15:55:13.971Z,0.10
2023-09-14T15:57:48.357Z,0.10
2023-09-14T16:00:15.738Z,0.20
2023-09-14T16:02:42.761Z,0.10
2023-09-14T16:05:10.384Z,0.10
2023-09-14T16:07:41.068Z,0.20
2023-09-14T16:10:12.947Z,0.10
2023-09-14T16:12:39.927Z,0.10
2023-09-14T16:15:09.239Z,0.20
2023-09-14T16:17:36.158Z,0.20
2023-09-14T16:20:03.715Z,0.20
2023-09-14T16:22:30.622Z,0.20
2023-09-14T16:24:59.526Z,0.20
2023-09-14T16:27:26.565Z,0.10
2023-09-14T16:29:53.762Z,0.20
2023-09-14T16:32:20.635Z,0.10
2023-09-14T16:34:48.098Z,0.10
2023-09-14T16:37:15.132Z,0.10
2023-09-14T16:39:42.389Z,0.20
2023-09-14T16:42:10.673Z,0.10
2023-09-14T16:44:37.918Z,0.20
2023-09-14T16:47:05.179Z,0.20
2023-09-14T16:49:33.277Z,0.10
2023-09-14T16:52:00.294Z,0.20
2023-09-14T16:54:31.705Z,0.15
2023-09-14T16:56:59.714Z,0.20
2023-09-14T16:59:28.104Z,0.20
2023-09-14T17:01:56.267Z,0.20
2023-09-14T17:04:23.271Z,0.20
2023-09-14T17:06:51.933Z,0.20
2023-09-14T17:09:18.873Z,0.20
2023-09-14T17:11:46.119Z,0.10
2023-09-14T17:14:13.166Z,0.10
2023-09-14T17:16:41.552Z,0.20
2023-09-14T17:19:08.725Z,0.20
2023-09-14T17:21:36.349Z,0.20
2023-09-14T17:24:04.386Z,0.13
2023-09-14T17:26:31.925Z,0.20
2023-09-14T17:29:00.449Z,0.20
2023-09-14T17:31:27.788Z,0.20
2023-09-14T17:33:56.588Z,0.20
2023-09-14T17:36:23.861Z,0.20
2023-09-14T17:38:50.704Z,0.20
2023-09-14T17:41:18.354Z,0.20
2023-09-14T17:43:45.308Z,0.20
2023-09-14T17:46:12.202Z,0.10
2023-09-14T17:48:39.062Z,0.20
2023-09-14T17:51:07.355Z,0.20
2023-09-14T17:53:34.242Z,0.20
2023-09-14T17:56:02.725Z,0.20
2023-09-14T17:58:30.166Z,0.20
2023-09-14T18:00:57.661Z,0.20
2023-09-14T18:03:24.845Z,0.20
2023-09-14T18:05:53.801Z,0.20
2023-09-14T18:08:22.241Z,0.20
2023-09-14T18:10:49.747Z,0.20
2023-09-14T18:13:16.703Z,0.20
2023-09-14T18:15:45.461Z,0.20
2023-09-14T18:18:12.822Z,0.20
2023-09-14T18:20:40.192Z,0.20
2023-09-14T18:23:07.283Z,0.20
2023-09-14T18:25:35.525Z,0.20
2023-09-14T18:28:03.231Z,0.20
2023-09-14T18:30:30.238Z,0.20
2023-09-14T18:33:01.971Z,0.20
2023-09-14T18:35:28.995Z,0.20
2023-09-14T18:37:56.277Z,0.20
2023-09-14T18:40:23.121Z,0.20
2023-09-14T18:42:56.102Z,0.20
2023-09-14T18:45:23.122Z,0.20
2023-09-14T18:47:50.852Z,0.20
2023-09-14T18:50:17.918Z,0.20
2023-09-14T18:52:45.355Z,0.20
2023-09-14T18:55:12.693Z,0.20
2023-09-14T18:57:40.230Z,0.20
2023-09-14T19:00:12.607Z,0.20
2023-09-14T19:02:41.170Z,0.20
2023-09-14T19:05:08.936Z,0.20
2023-09-14T19:07:37.467Z,0.20
2023-09-14T19:10:05.435Z,0.20
2023-09-14T19:12:32.879Z,0.20
2023-09-14T19:14:59.794Z,0.20
2023-09-14T19:17:28.944Z,0.20
2023-09-14T19:19:55.788Z,0.20
2023-09-14T19:22:22.977Z,0.20
2023-09-14T19:24:49.865Z,0.20
2023-09-14T19:27:16.859Z,0.20
2023-09-14T19:29:43.708Z,0.20
2023-09-14T19:32:10.820Z,0.20
2023-09-14T19:34:39.199Z,0.20
2023-09-14T19:37:06.516Z,0.20
2023-09-14T19:39:33.511Z,0.20
2023-09-14T19:42:00.545Z,0.20
2023-09-14T19:44:27.518Z,0.20
2023-09-14T19:46:54.644Z,0.30
2023-09-14T19:49:21.876Z,0.20
2023-09-14T19:51:50.294Z,0.20
2023-09-14T19:54:17.235Z,0.20
2023-09-14T19:56:44.151Z,0.20
2023-09-14T19:59:11.518Z,0.20
2023-09-14T20:01:40.144Z,0.23
2023-09-14T20:04:07.272Z,0.20
2023-09-14T20:06:34.340Z,0.20
2023-09-14T20:09:04.593Z,0.20
2023-09-14T20:11:31.803Z,0.30
2023-09-14T20:13:59.334Z,0.20
2023-09-14T20:16:26.339Z,0.20
2023-09-14T20:18:53.758Z,0.20
2023-09-14T20:21:20.788Z,0.30
2023-09-14T20:23:48.024Z,0.20
2023-09-14T20:26:16.335Z,0.20
2023-09-14T20:28:43.924Z,0.30
2023-09-14T20:31:10.891Z,0.30
2023-09-14T20:33:38.147Z,0.20
2023-09-14T20:36:05.573Z,0.20
2023-09-14T20:38:43.542Z,0.20
2023-09-14T20:41:10.782Z,0.20
2023-09-14T20:43:39.738Z,0.20
2023-09-14T20:46:06.842Z,0.20
2023-09-14T20:48:34.296Z,0.20
2023-09-14T20:51:07.221Z,0.30
2023-09-14T20:53:35.499Z,0.20
2023-09-14T20:56:08.059Z,0.20
2023-09-14T20:58:36.955Z,0.30
2023-09-14T21:01:15.649Z,0.20
2023-09-14T21:03:43.770Z,0.30
2023-09-14T21:06:13.714Z,0.20
2023-09-14T21:08:41.495Z,0.20
2023-09-14T21:11:08.466Z,0.20
2023-09-14T21:13:36.218Z,0.20
2023-09-14T21:16:04.568Z,0.20
2023-09-14T21:18:32.939Z,0.23
2023-09-14T21:21:01.542Z,0.20
2023-09-14T21:23:28.715Z,0.20
2023-09-14T21:25:55.878Z,0.20
2023-09-14T21:28:23.627Z,0.20
2023-09-14T21:30:55.173Z,0.20
2023-09-14T21:33:22.756Z,0.20
2023-09-14T21:35:55.468Z,0.20
2023-09-14T21:38:22.952Z,0.20
2023-09-14T21:40:58.017Z,0.20
2023-09-14T21:43:25.345Z,0.20
2023-09-14T21:45:52.280Z,0.20
2023-09-14T21:48:19.660Z,0.20
2023-09-14T21:50:47.014Z,0.30
2023-09-14T21:53:15.428Z,0.20
2023-09-14T21:55:43.574Z,0.20
2023-09-14T21:58:11.339Z,0.20
2023-09-14T22:00:39.037Z,0.20
2023-09-14T22:03:06.650Z,0.20
2023-09-14T22:05:34.053Z,0.20
2023-09-14T22:08:01.686Z,0.20
2023-09-14T22:10:30.593Z,0.30
2023-09-14T22:12:57.664Z,0.20
2023-09-14T22:15:26.950Z,0.20
2023-09-14T22:17:56.108Z,0.20
2023-09-14T22:20:23.213Z,0.30
2023-09-14T22:22:51.639Z,0.20
2023-09-14T22:25:19.841Z,0.20
2023-09-14T22:27:48.392Z,0.20
2023-09-14T22:30:16.588Z,0.20
2023-09-14T22:32:43.693Z,0.20
2023-09-14T22:35:11.287Z,0.20
2023-09-14T22:37:49.167Z,0.20
2023-09-14T22:40:18.138Z,0.20
2023-09-14T22:42:45.154Z,0.20
2023-09-14T22:45:13.844Z,0.20
2023-09-14T22:47:41.680Z,0.20
2023-09-14T22:50:10.023Z,0.20
2023-09-14T22:52:37.071Z,0.30
2023-09-14T22:55:12.798Z,0.20
2023-09-14T22:57:40.783Z,0.30
2023-09-14T23:00:11.743Z,0.20
2023-09-14T23:02:41.368Z,0.20
2023-09-14T23:05:12.942Z,0.30
2023-09-14T23:07:40.096Z,0.20
2023-09-14T23:10:08.666Z,0.20
2023-09-14T23:12:35.643Z,0.30
2023-09-14T23:15:04.216Z,0.30
2023-09-14T23:17:32.105Z,0.30
2023-09-14T23:20:00.819Z,0.30
2023-09-14T23:22:27.839Z,0.30
2023-09-14T23:24:59.789Z,0.30
2023-09-14T23:27:27.528Z,0.30
2023-09-14T23:29:54.682Z,0.20
2023-09-14T23:32:21.666Z,0.30
2023-09-14T23:34:49.161Z,0.27
2023-09-14T23:37:18.554Z,0.20
2023-09-14T23:39:45.602Z,0.20
2023-09-14T23:42:13.098Z,0.20
2023-09-14T23:44:40.152Z,0.30
2023-09-14T23:47:12.448Z,0.30
2023-09-14T23:49:40.335Z,0.30
2023-09-14T23:52:08.004Z,0.20
2023-09-14T23:54:36.303Z,0.20
2023-09-14T23:57:04.470Z,0.30
2023-09-14T23:59:33.053Z,0.30
